createdAt,value
2018-11-28T00:02:01.514Z,11.37
2018-11-28T00:04:29.560Z,14.97
2018-11-28T00:06:57.647Z,9.93
2018-11-28T00:09:26.191Z,10.43
2018-11-28T00:11:53.798Z,11.80
2018-11-28T00:14:21.860Z,10.00
2018-11-28T00:16:49.955Z,8.93
2018-11-28T00:19:18.019Z,11.93
2018-11-28T00:21:46.043Z,11.67
2018-11-28T00:24:14.163Z,11.63
2018-11-28T00:26:42.216Z,12.83
2018-11-28T00:29:10.272Z,9.33
2018-11-28T00:31:38.358Z,7.87
2018-11-28T00:34:06.642Z,5.80
2018-11-28T00:36:34.708Z,9.70
2018-11-28T00:39:02.870Z,9.77
2018-11-28T00:41:30.930Z,11.80
2018-11-28T00:43:59.007Z,10.03
2018-11-28T00:46:28.110Z,10.80
2018-11-28T00:48:56.197Z,9.97
2018-11-28T00:51:24.258Z,8.77
2018-11-28T00:53:52.336Z,10.57
2018-11-28T00:56:20.485Z,6.67
2018-11-28T00:58:48.570Z,6.63
2018-11-28T01:01:16.650Z,5.57
2018-11-28T01:03:44.691Z,8.43
2018-11-28T01:06:12.789Z,8.83
2018-11-28T01:08:40.886Z,6.47
2018-11-28T01:11:11.032Z,9.03
2018-11-28T01:13:39.041Z,10.23
2018-11-28T01:16:08.151Z,7.13
2018-11-28T01:18:36.226Z,9.10
2018-11-28T01:21:04.278Z,6.57
2018-11-28T01:23:32.359Z,12.47
2018-11-28T01:26:00.509Z,9.00
2018-11-28T01:28:28.505Z,8.00
2018-11-28T01:30:56.600Z,8.33
2018-11-28T01:33:24.658Z,7.73
2018-11-28T01:35:52.719Z,6.70
2018-11-28T01:38:20.866Z,8.67
2018-11-28T01:40:49.928Z,5.83
2018-11-28T01:43:17.965Z,9.30
2018-11-28T01:45:46.034Z,6.67
2018-11-28T01:48:14.113Z,6.47
2018-11-28T01:50:42.177Z,7.80
2018-11-28T01:53:10.257Z,7.23
2018-11-28T01:55:38.382Z,10.20
2018-11-28T01:58:07.446Z,6.47
2018-11-28T02:00:36.520Z,8.10
2018-11-28T02:03:04.590Z,9.33
2018-11-28T02:05:32.650Z,9.07
2018-11-28T02:08:00.735Z,10.07
2018-11-28T02:10:28.790Z,8.13
2018-11-28T02:12:56.867Z,8.37
2018-11-28T02:15:27.733Z,10.73
2018-11-28T02:17:56.738Z,8.17
2018-11-28T02:20:24.770Z,8.27
2018-11-28T02:22:53.888Z,12.80
2018-11-28T02:25:21.938Z,8.47
2018-11-28T02:27:50.049Z,13.90
2018-11-28T02:30:19.663Z,11.50
2018-11-28T02:32:48.478Z,14.67
2018-11-28T02:35:17.016Z,14.27
2018-11-28T02:37:45.144Z,6.97
2018-11-28T02:40:15.121Z,8.03
2018-11-28T02:42:43.250Z,8.57
2018-11-28T02:45:14.257Z,9.33
2018-11-28T02:47:42.404Z,7.33
2018-11-28T02:50:12.497Z,10.23
2018-11-28T02:52:40.570Z,7.57
2018-11-28T02:55:16.310Z,10.70
2018-11-28T02:57:45.375Z,13.83
2018-11-28T03:00:20.754Z,9.63
2018-11-28T03:02:48.889Z,6.23
2018-11-28T03:05:39.781Z,5.93
2018-11-28T03:08:07.815Z,8.33
2018-11-28T03:19:27.506Z,10.07
2018-11-28T03:27:58.855Z,8.57
2018-11-28T03:44:54.798Z,5.43
2018-11-28T03:47:33.702Z,13.63
2018-11-28T03:52:56.083Z,9.97
2018-11-28T04:01:33.200Z,6.23
2018-11-28T04:12:45.316Z,6.83
2018-11-28T04:15:20.454Z,11.10
2018-11-28T04:17:50.527Z,6.70
2018-11-28T04:20:21.490Z,9.93
2018-11-28T04:22:56.074Z,16.80
2018-11-28T04:25:24.155Z,8.30
2018-11-28T04:27:52.470Z,8.63
2018-11-28T04:30:22.367Z,8.47
2018-11-28T04:32:51.646Z,7.67
2018-11-28T04:35:20.727Z,9.73
2018-11-28T04:37:49.860Z,8.70
2018-11-28T04:40:20.616Z,9.70
2018-11-28T04:42:49.053Z,10.30
2018-11-28T04:45:22.142Z,9.03
2018-11-28T04:47:50.976Z,9.73
2018-11-28T04:50:20.099Z,13.37
2018-11-28T04:52:48.202Z,15.17
2018-11-28T04:55:17.223Z,7.93
2018-11-28T04:57:47.460Z,11.00
2018-11-28T05:00:19.840Z,10.60
2018-11-28T05:02:49.103Z,11.63
2018-11-28T05:05:17.187Z,14.43
2018-11-28T05:07:49.192Z,8.17
2018-11-28T05:10:20.491Z,9.87
2018-11-28T05:12:48.773Z,16.63
2018-11-28T05:15:17.785Z,9.37
2018-11-28T05:17:47.874Z,10.93
2018-11-28T05:20:16.979Z,13.47
2018-11-28T05:22:46.099Z,10.33
2018-11-28T05:25:16.971Z,11.13
2018-11-28T05:27:45.101Z,12.40
2018-11-28T05:30:17.186Z,10.87
2018-11-28T05:32:45.335Z,16.53
2018-11-28T05:35:15.244Z,14.80
2018-11-28T05:37:43.418Z,12.97
2018-11-28T05:40:12.819Z,13.83
2018-11-28T05:42:40.871Z,11.80
2018-11-28T05:45:10.350Z,16.23
2018-11-28T05:47:39.485Z,13.57
2018-11-28T05:50:10.174Z,12.03
2018-11-28T05:52:38.260Z,12.93
2018-11-28T05:55:08.069Z,19.17
2018-11-28T05:57:36.309Z,10.03
2018-11-28T06:00:07.029Z,19.07
2018-11-28T06:02:35.114Z,15.80
2018-11-28T06:05:03.154Z,10.40
2018-11-28T06:07:31.215Z,15.93
2018-11-28T06:09:59.302Z,20.87
2018-11-28T06:12:27.367Z,15.80
2018-11-28T06:14:55.452Z,23.20
2018-11-28T06:17:23.535Z,19.47
2018-11-28T06:19:52.606Z,16.53
2018-11-28T06:22:20.696Z,13.33
2018-11-28T06:24:48.779Z,15.67
2018-11-28T06:27:16.816Z,11.07
2018-11-28T06:29:45.034Z,16.40
2018-11-28T06:32:13.082Z,19.27
2018-11-28T06:34:41.272Z,15.97
2018-11-28T06:37:09.381Z,19.17
2018-11-28T06:39:37.842Z,13.20
2018-11-28T06:42:06.188Z,17.27
2018-11-28T06:44:34.315Z,19.33
2018-11-28T06:47:02.505Z,18.37
2018-11-28T06:49:30.708Z,16.53
2018-11-28T06:51:58.869Z,12.80
2018-11-28T06:54:27.016Z,15.97
2018-11-28T06:56:56.059Z,19.73
2018-11-28T06:59:24.096Z,27.83
2018-11-28T07:01:52.217Z,16.40
2018-11-28T07:04:20.290Z,23.10
2018-11-28T07:06:48.341Z,26.17
2018-11-28T07:09:16.491Z,12.73
2018-11-28T07:11:44.635Z,21.03
2018-11-28T07:14:12.816Z,19.87
2018-11-28T07:16:41.047Z,18.37
2018-11-28T07:19:11.457Z,28.60
2018-11-28T07:21:39.676Z,18.17
2018-11-28T07:24:08.062Z,17.77
2018-11-28T07:26:36.203Z,22.90
2018-11-28T07:29:04.479Z,18.30
2018-11-28T07:31:32.539Z,19.07
2018-11-28T07:34:00.586Z,21.97
2018-11-28T07:36:28.718Z,16.53
2018-11-28T07:38:56.742Z,18.83
2018-11-28T07:41:25.652Z,21.60
2018-11-28T07:43:53.702Z,18.20
2018-11-28T07:46:21.782Z,15.77
2018-11-28T07:48:49.848Z,17.77
2018-11-28T07:51:18.679Z,18.33
2018-11-28T07:53:46.760Z,18.90
2018-11-28T07:56:14.795Z,16.30
2018-11-28T07:58:42.893Z,19.53
2018-11-28T08:01:10.924Z,19.23
2018-11-28T08:03:39.047Z,17.10
2018-11-28T08:06:07.065Z,16.23
2018-11-28T08:08:37.540Z,20.43
2018-11-28T08:11:06.648Z,16.43
2018-11-28T08:13:34.884Z,15.30
2018-11-28T08:16:02.986Z,15.50
2018-11-28T08:18:31.102Z,15.40
2018-11-28T08:20:59.226Z,17.87
2018-11-28T08:23:28.151Z,16.77
2018-11-28T08:25:55.510Z,29.93
2018-11-28T08:28:23.550Z,23.43
2018-11-28T08:30:51.658Z,14.73
2018-11-28T08:33:19.829Z,16.63
2018-11-28T08:35:47.961Z,12.40
2018-11-28T08:38:16.032Z,19.90
2018-11-28T08:40:44.174Z,21.93
2018-11-28T08:43:13.112Z,24.27
2018-11-28T08:45:41.165Z,17.90
2018-11-28T08:48:09.339Z,15.50
2018-11-28T08:50:38.145Z,16.73
2018-11-28T08:53:06.957Z,18.40
2018-11-28T08:55:35.187Z,14.17
2018-11-28T08:58:03.266Z,17.63
2018-11-28T09:00:31.360Z,12.17
2018-11-28T09:02:59.423Z,15.70
2018-11-28T09:05:27.585Z,12.77
2018-11-28T09:07:55.660Z,17.00
2018-11-28T09:10:23.774Z,11.70
2018-11-28T09:12:52.277Z,12.40
2018-11-28T09:15:25.109Z,14.23
2018-11-28T09:17:53.157Z,17.43
2018-11-28T09:20:21.269Z,13.47
2018-11-28T09:22:49.300Z,10.60
2018-11-28T09:25:18.040Z,11.33
2018-11-28T09:27:48.128Z,40.87
2018-11-28T09:30:19.097Z,12.60
2018-11-28T09:32:48.896Z,14.73
2018-11-28T09:35:17.152Z,21.97
2018-11-28T09:37:45.826Z,12.97
2018-11-28T09:40:17.185Z,10.53
2018-11-28T09:42:45.278Z,13.17
2018-11-28T09:45:14.379Z,9.17
2018-11-28T09:47:42.410Z,15.27
2018-11-28T09:50:27.003Z,12.00
2018-11-28T09:52:55.042Z,13.17
2018-11-28T09:55:25.071Z,9.30
2018-11-28T09:57:53.230Z,11.87
2018-11-28T10:00:24.153Z,10.47
2018-11-28T10:02:53.300Z,14.20
2018-11-28T10:05:22.536Z,13.30
2018-11-28T10:07:50.675Z,9.13
2018-11-28T10:10:18.764Z,6.57
2018-11-28T10:12:46.914Z,11.10
2018-11-28T10:15:18.920Z,7.50
2018-11-28T10:17:47.268Z,11.03
2018-11-28T10:20:16.040Z,8.57
2018-11-28T10:22:44.469Z,9.40
2018-11-28T10:25:14.685Z,6.73
2018-11-28T10:27:44.920Z,9.53
2018-11-28T10:30:16.167Z,5.83
2018-11-28T10:32:44.303Z,7.60
2018-11-28T10:35:12.381Z,12.30
2018-11-28T10:37:40.432Z,9.87
2018-11-28T10:40:11.066Z,8.33
2018-11-28T10:42:40.221Z,11.30
2018-11-28T10:45:09.701Z,7.07
2018-11-28T10:47:37.829Z,6.90
2018-11-28T10:50:08.076Z,8.53
2018-11-28T10:52:36.148Z,7.30
2018-11-28T10:55:08.974Z,6.40
2018-11-28T10:57:37.095Z,5.83
2018-11-28T11:00:08.176Z,8.80
2018-11-28T11:02:41.791Z,5.50
2018-11-28T11:05:16.375Z,6.67
2018-11-28T11:07:49.931Z,9.80
2018-11-28T11:10:23.689Z,5.20
2018-11-28T11:12:57.263Z,41.23
2018-11-28T11:15:25.346Z,6.37
2018-11-28T11:17:54.437Z,7.20
2018-11-28T11:20:26.093Z,8.80
2018-11-28T11:22:54.164Z,7.53
2018-11-28T11:25:22.273Z,8.23
2018-11-28T11:27:50.449Z,5.47
2018-11-28T11:30:18.595Z,15.70
2018-11-28T11:32:46.773Z,14.67
2018-11-28T11:35:14.803Z,16.90
2018-11-28T11:37:42.957Z,28.67
2018-11-28T11:40:12.862Z,6.10
2018-11-28T11:42:41.937Z,19.37
2018-11-28T11:45:11.399Z,8.73
2018-11-28T11:47:40.506Z,7.43
2018-11-28T11:50:14.282Z,8.77
2018-11-28T11:52:42.550Z,5.00
2018-11-28T11:55:11.932Z,3.83
2018-11-28T11:57:50.720Z,5.63
2018-11-28T12:00:22.864Z,10.60
2018-11-28T12:03:01.138Z,9.10
2018-11-28T12:05:29.437Z,3.80
2018-11-28T12:07:57.564Z,4.43
2018-11-28T12:10:31.690Z,13.63
2018-11-28T12:13:00.802Z,8.90
2018-11-28T12:15:29.036Z,6.50
2018-11-28T12:17:57.123Z,3.63
2018-11-28T12:20:28.786Z,3.47
2018-11-28T12:22:56.820Z,4.97
2018-11-28T12:25:25.026Z,9.97
2018-11-28T12:27:53.085Z,4.07
2018-11-28T12:30:22.202Z,3.40
2018-11-28T12:32:50.306Z,8.07
2018-11-28T12:35:19.155Z,4.83
2018-11-28T12:37:47.447Z,3.90
2018-11-28T12:40:17.543Z,5.73
2018-11-28T12:42:51.341Z,10.63
2018-11-28T12:45:20.336Z,5.50
2018-11-28T12:47:48.868Z,23.60
2018-11-28T12:50:18.454Z,30.67
2018-11-28T12:52:46.516Z,6.20
2018-11-28T12:55:15.807Z,7.47
2018-11-28T12:57:43.861Z,12.70
2018-11-28T13:00:13.661Z,8.80
2018-11-28T13:02:44.934Z,7.70
2018-11-28T13:05:18.261Z,3.43
2018-11-28T13:07:46.345Z,8.00
2018-11-28T13:10:17.517Z,20.33
2018-11-28T13:12:46.567Z,21.13
2018-11-28T13:15:16.618Z,25.93
2018-11-28T13:17:45.686Z,8.40
2018-11-28T13:20:15.790Z,2.73
2018-11-28T13:22:48.713Z,8.27
2018-11-28T13:25:20.041Z,6.27
2018-11-28T13:27:49.113Z,2.47
2018-11-28T13:30:20.991Z,9.00
2018-11-28T13:32:49.792Z,3.10
2018-11-28T13:35:19.878Z,30.47
2018-11-28T13:37:49.183Z,4.50
2018-11-28T13:40:18.202Z,5.43
2018-11-28T13:42:46.270Z,4.60
2018-11-28T13:45:17.306Z,3.43
2018-11-28T13:47:46.630Z,5.00
2018-11-28T13:50:14.790Z,5.27
2018-11-28T13:52:42.909Z,4.77
2018-11-28T13:57:43.547Z,5.87
2018-11-28T14:00:11.668Z,7.40
2018-11-28T14:02:39.741Z,6.10
2018-11-28T14:05:10.379Z,7.37
2018-11-28T14:07:38.493Z,4.10
2018-11-28T14:10:09.107Z,4.30
2018-11-28T14:12:37.305Z,8.07
2018-11-28T14:15:12.211Z,4.70
2018-11-28T14:17:40.360Z,5.37
2018-11-28T14:20:09.842Z,5.90
2018-11-28T14:22:38.865Z,5.27
2018-11-28T14:25:09.187Z,5.77
2018-11-28T14:27:37.258Z,4.93
2018-11-28T14:30:11.078Z,4.80
2018-11-28T14:32:39.267Z,4.60
2018-11-28T14:35:08.651Z,4.83
2018-11-28T14:37:36.956Z,6.10
2018-11-28T14:40:08.471Z,4.87
2018-11-28T14:42:36.580Z,2.97
2018-11-28T14:45:06.869Z,3.53
2018-11-28T14:47:34.921Z,4.10
2018-11-28T14:50:11.109Z,3.43
2018-11-28T14:52:39.151Z,4.03
2018-11-28T14:55:11.077Z,4.73
2018-11-28T14:57:39.614Z,3.70
2018-11-28T15:00:11.169Z,5.63
2018-11-28T15:02:39.265Z,4.47
2018-11-28T15:05:14.524Z,6.60
2018-11-28T15:07:42.666Z,3.97
2018-11-28T15:10:12.393Z,6.27
2018-11-28T15:12:40.446Z,6.50
2018-11-28T15:15:08.573Z,5.93
2018-11-28T15:17:36.670Z,6.30
2018-11-28T15:20:06.525Z,11.50
2018-11-28T15:22:34.545Z,4.73
2018-11-28T15:25:03.544Z,4.90
2018-11-28T15:27:31.620Z,4.90
2018-11-28T15:29:59.721Z,5.23
2018-11-28T15:32:27.823Z,9.23
2018-11-28T15:34:58.032Z,6.77
2018-11-28T15:37:24.027Z,11.43
2018-11-28T15:39:55.828Z,8.50
2018-11-28T15:42:20.173Z,4.07
2018-11-28T15:44:48.223Z,3.27
2018-11-28T15:47:16.320Z,8.57
2018-11-28T15:49:44.388Z,7.63
2018-11-28T15:52:12.463Z,4.73
2018-11-28T15:54:40.513Z,4.37
2018-11-28T15:57:08.570Z,6.00
2018-11-28T15:59:36.672Z,6.77
2018-11-28T16:02:05.580Z,8.37
2018-11-28T16:04:33.623Z,6.30
2018-11-28T16:07:01.727Z,6.57
2018-11-28T16:09:35.400Z,4.60
2018-11-28T16:12:03.512Z,8.83
2018-11-28T16:14:31.533Z,5.97
2018-11-28T16:18:28.921Z,6.43
2018-11-28T16:20:57.032Z,9.23
2018-11-28T16:23:25.179Z,6.03
2018-11-28T16:25:53.238Z,7.63
2018-11-28T16:28:21.320Z,8.03
2018-11-28T16:30:49.381Z,5.80
2018-11-28T16:33:17.452Z,7.40
2018-11-28T16:35:45.518Z,4.60
2018-11-28T16:38:15.462Z,5.57
2018-11-28T16:40:43.623Z,11.70
2018-11-28T16:43:11.682Z,5.63
2018-11-28T16:45:39.783Z,5.37
2018-11-28T16:48:07.830Z,6.33
2018-11-28T16:50:35.876Z,4.20
2018-11-28T16:53:03.981Z,5.70
2018-11-28T16:55:32.065Z,10.00
2018-11-28T16:58:00.196Z,5.03
2018-11-28T17:00:29.665Z,8.63
2018-11-28T17:02:58.221Z,11.10
2018-11-28T17:05:26.281Z,10.00
2018-11-28T17:07:54.446Z,5.57
2018-11-28T17:10:25.540Z,5.17
2018-11-28T17:12:54.226Z,5.70
2018-11-28T17:15:22.319Z,6.90
2018-11-28T17:17:50.464Z,5.87
2018-11-28T17:20:19.579Z,7.40
2018-11-28T17:22:49.536Z,3.83
2018-11-28T17:25:21.613Z,10.30
2018-11-28T17:27:49.757Z,2.47
2018-11-28T17:30:22.047Z,6.77
2018-11-28T17:32:50.140Z,7.63
2018-11-28T17:35:18.232Z,11.30
2018-11-28T17:37:46.287Z,7.80
2018-11-28T17:40:16.418Z,6.43
2018-11-28T17:42:45.715Z,7.77
2018-11-28T17:45:14.918Z,11.07
2018-11-28T17:47:43.989Z,8.00
2018-11-28T17:50:15.172Z,6.57
2018-11-28T17:52:44.953Z,6.57
2018-11-28T17:55:14.591Z,7.67
2018-11-28T17:57:42.583Z,8.57
2018-11-28T18:00:12.068Z,8.57
2018-11-28T18:02:40.645Z,18.23
2018-11-28T18:05:09.739Z,12.90
2018-11-28T18:07:37.922Z,8.00
2018-11-28T18:10:13.518Z,12.57
2018-11-28T18:12:53.167Z,13.10
2018-11-28T18:15:21.449Z,8.70
2018-11-28T18:17:49.834Z,16.70
2018-11-28T18:20:17.890Z,15.80
2018-11-28T18:22:45.981Z,8.37
2018-11-28T18:25:14.031Z,9.20
2018-11-28T18:27:42.173Z,13.70
2018-11-28T18:30:12.049Z,7.23
2018-11-28T18:32:40.650Z,10.83
2018-11-28T18:35:09.954Z,9.87
2018-11-28T18:37:38.116Z,9.50
2018-11-28T18:40:10.409Z,16.23
2018-11-28T18:42:38.659Z,10.00
2018-11-28T18:45:10.254Z,10.97
2018-11-28T18:47:38.371Z,11.87
2018-11-28T18:50:07.831Z,11.13
2018-11-28T18:52:37.900Z,13.13
2018-11-28T18:55:16.551Z,12.10
2018-11-28T18:57:40.953Z,10.90
2018-11-28T19:00:12.799Z,17.83
2018-11-28T19:02:41.033Z,10.17
2018-11-28T19:05:09.184Z,13.20
2018-11-28T19:07:37.324Z,11.10
2018-11-28T19:10:09.197Z,14.93
2018-11-28T19:12:37.306Z,13.77
2018-11-28T19:15:08.606Z,16.07
2018-11-28T19:17:36.639Z,11.07
2018-11-28T19:20:07.110Z,15.20
2018-11-28T19:22:35.141Z,11.57
2018-11-28T19:25:03.295Z,22.10
2018-11-28T19:27:31.723Z,16.03
2018-11-28T19:29:59.944Z,7.00
2018-11-28T19:32:28.265Z,13.37
2018-11-28T19:34:56.345Z,12.30
2018-11-28T19:37:24.455Z,19.30
2018-11-28T19:39:52.651Z,14.50
2018-11-28T19:42:20.773Z,9.57
2018-11-28T19:44:48.882Z,16.93
2018-11-28T19:47:18.120Z,20.97
2018-11-28T19:49:47.203Z,20.37
2018-11-28T19:52:15.316Z,18.70
2018-11-28T19:54:43.385Z,14.73
2018-11-28T19:57:11.444Z,15.37
2018-11-28T19:59:39.660Z,15.00
2018-11-28T20:02:08.757Z,18.47
2018-11-28T20:04:36.943Z,21.23
2018-11-28T20:07:05.342Z,16.27
2018-11-28T20:09:33.427Z,23.30
2018-11-28T20:12:01.507Z,16.77
2018-11-28T20:14:29.597Z,23.50
2018-11-28T20:16:57.660Z,20.97
2018-11-28T20:19:25.716Z,15.90
2018-11-28T20:21:53.798Z,22.97
2018-11-28T20:24:21.862Z,22.03
2018-11-28T20:26:50.875Z,31.03
2018-11-28T20:29:18.119Z,17.77
2018-11-28T20:31:46.248Z,19.93
2018-11-28T20:34:14.442Z,25.00
2018-11-28T20:36:42.550Z,21.87
2018-11-28T20:39:10.608Z,20.40
2018-11-28T20:41:38.769Z,22.57
2018-11-28T20:44:06.763Z,20.00
2018-11-28T20:46:34.806Z,24.13
2018-11-28T20:49:02.920Z,21.60
2018-11-28T20:51:30.987Z,17.07
2018-11-28T20:53:59.066Z,29.60
2018-11-28T20:56:27.158Z,29.90
2018-11-28T20:58:55.294Z,24.10
2018-11-28T21:01:23.364Z,28.03
2018-11-28T21:03:51.524Z,26.53
2018-11-28T21:06:19.663Z,23.17
2018-11-28T21:08:47.779Z,37.20
2018-11-28T21:11:15.839Z,21.63
2018-11-28T21:13:43.966Z,27.07
2018-11-28T21:16:12.165Z,27.03
2018-11-28T21:18:40.268Z,27.17
2018-11-28T21:21:08.627Z,23.80
2018-11-28T21:23:36.715Z,27.93
2018-11-28T21:26:05.248Z,28.37
2018-11-28T21:28:33.369Z,29.33
2018-11-28T21:31:01.478Z,30.77
2018-11-28T21:33:29.532Z,35.20
2018-11-28T21:35:57.596Z,42.03
2018-11-28T21:38:25.691Z,31.20
2018-11-28T21:40:53.789Z,27.13
2018-11-28T21:43:21.933Z,30.60
2018-11-28T21:45:49.994Z,27.27
2018-11-28T21:48:18.090Z,23.67
2018-11-28T21:50:46.140Z,22.10
2018-11-28T21:53:14.200Z,34.70
2018-11-28T21:57:59.707Z,30.17
2018-11-28T22:00:27.975Z,25.37
2018-11-28T22:02:56.028Z,22.67
2018-11-28T22:05:24.473Z,23.40
2018-11-28T22:07:52.674Z,21.90
2018-11-28T22:10:22.443Z,23.37
2018-11-28T22:12:50.509Z,30.17
2018-11-28T22:15:18.749Z,20.47
2018-11-28T22:17:49.050Z,23.17
2018-11-28T22:20:17.177Z,29.77
2018-11-28T22:22:45.214Z,23.27
2018-11-28T22:25:21.942Z,27.87
2018-11-28T22:27:49.982Z,17.90
2018-11-28T22:30:20.076Z,25.53
2018-11-28T22:32:48.203Z,23.63
2018-11-28T22:35:16.239Z,29.43
2018-11-28T22:37:44.299Z,21.77
2018-11-28T22:40:14.598Z,30.70
2018-11-28T22:42:42.723Z,27.20
2018-11-28T22:45:15.028Z,26.90
2018-11-28T22:47:43.201Z,22.73
2018-11-28T22:50:12.298Z,21.77
2018-11-28T22:52:40.460Z,37.77
2018-11-28T22:55:10.577Z,29.67
2018-11-28T22:57:38.664Z,21.40
2018-11-28T23:00:10.790Z,26.83
2018-11-28T23:02:55.955Z,18.77
2018-11-28T23:05:27.891Z,25.93
2018-11-28T23:07:56.943Z,25.43
2018-11-28T23:10:25.009Z,28.77
2018-11-28T23:12:53.317Z,26.67
2018-11-28T23:15:22.465Z,23.67
2018-11-28T23:17:55.013Z,24.30
2018-11-28T23:20:19.689Z,25.33
2018-11-28T23:22:48.793Z,32.43
2018-11-28T23:25:17.005Z,29.43
2018-11-28T23:27:45.446Z,33.47
2018-11-28T23:30:17.010Z,33.87
2018-11-28T23:32:45.639Z,29.23
2018-11-28T23:35:13.726Z,23.80
2018-11-28T23:37:43.951Z,33.13
2018-11-28T23:40:14.071Z,33.20
2018-11-28T23:42:42.097Z,24.33
2018-11-28T23:45:11.349Z,38.17
2018-11-28T23:47:39.419Z,32.40
2018-11-28T23:50:10.005Z,44.17
2018-11-28T23:52:38.090Z,33.27
2018-11-28T23:55:07.701Z,36.30
2018-11-28T23:57:35.812Z,28.20
